createdAt,value
2019-05-05T00:02:31.021Z,100944.14
2019-05-05T00:05:08.731Z,100946.17
2019-05-05T00:07:38.290Z,100950.77
2019-05-05T00:10:10.441Z,100951.31
2019-05-05T00:12:55.162Z,100950.91
2019-05-05T00:15:44.935Z,100950.52
2019-05-05T00:18:14.875Z,100949.32
2019-05-05T00:20:44.686Z,100956.38
2019-05-05T00:23:14.657Z,100957.65
2019-05-05T00:25:44.726Z,100957.53
2019-05-05T00:28:15.458Z,100954.86
2019-05-05T00:30:44.973Z,100961.34
2019-05-05T00:33:14.634Z,100963.33
2019-05-05T00:35:45.138Z,100964.09
2019-05-05T00:38:14.765Z,100973.14
2019-05-05T00:40:44.423Z,100967.77
2019-05-05T00:43:14.907Z,100974.02
2019-05-05T00:45:46.020Z,100979.39
2019-05-05T00:48:21.219Z,100980.67
2019-05-05T00:50:51.878Z,100984.85
2019-05-05T00:53:21.485Z,100981.92
2019-05-05T00:55:50.991Z,100982.04
2019-05-05T00:58:20.500Z,100986.86
2019-05-05T01:01:08.199Z,100986.46
2019-05-05T01:03:38.785Z,100985.63
2019-05-05T01:06:20.787Z,100982.19
2019-05-05T01:08:50.287Z,100987.11
2019-05-05T01:11:20.844Z,100985.37
2019-05-05T01:13:50.345Z,100982.40
2019-05-05T01:16:19.862Z,100982.00
2019-05-05T01:18:49.356Z,100984.27
2019-05-05T01:21:18.865Z,100981.77
2019-05-05T01:23:48.518Z,100984.27
2019-05-05T01:26:18.022Z,100986.72
2019-05-05T01:28:47.589Z,100989.37
2019-05-05T01:31:18.867Z,100984.98
2019-05-05T01:33:58.385Z,100985.93
2019-05-05T01:36:27.912Z,100979.92
2019-05-05T01:39:19.308Z,100986.72
2019-05-05T01:41:55.374Z,100982.45
2019-05-05T01:44:24.888Z,100982.45
2019-05-05T01:46:55.103Z,100981.46
2019-05-05T01:49:26.298Z,100983.41
2019-05-05T01:51:55.898Z,100982.06
2019-05-05T01:54:25.405Z,100981.74
2019-05-05T01:56:55.519Z,100988.11
2019-05-05T01:59:25.730Z,100989.86
2019-05-05T02:01:55.313Z,100998.12
2019-05-05T02:04:25.158Z,100995.99
2019-05-05T02:06:55.835Z,100999.13
2019-05-05T02:09:25.330Z,101003.64
2019-05-05T02:11:55.022Z,101001.66
2019-05-05T02:14:24.988Z,101004.27
2019-05-05T02:16:54.849Z,101006.52
2019-05-05T02:19:25.151Z,101007.11
2019-05-05T02:21:55.119Z,101007.91
2019-05-05T02:24:25.285Z,101002.05
2019-05-05T02:26:54.938Z,101005.77
2019-05-05T02:29:35.340Z,101002.20
2019-05-05T02:32:26.032Z,101003.20
2019-05-05T02:34:58.036Z,101007.91
2019-05-05T02:37:27.646Z,101005.56
2019-05-05T02:40:02.981Z,101014.85
2019-05-05T02:42:28.500Z,101011.73
2019-05-05T02:45:00.838Z,101005.84
2019-05-05T02:47:54.884Z,101003.71
2019-05-05T02:50:27.351Z,101005.09
2019-05-05T02:52:58.747Z,101011.91
2019-05-05T02:55:28.527Z,101018.70
2019-05-05T02:57:58.043Z,101015.50
2019-05-05T03:00:45.755Z,101017.80
2019-05-05T03:03:15.333Z,101022.78
2019-05-05T03:05:44.915Z,101030.06
2019-05-05T03:08:14.489Z,101028.98
2019-05-05T03:10:44.394Z,101027.37
2019-05-05T03:13:14.981Z,101025.78
2019-05-05T03:15:56.920Z,101029.59
2019-05-05T03:18:26.495Z,101031.37
2019-05-05T03:21:04.401Z,101030.58
2019-05-05T03:23:27.561Z,101034.17
2019-05-05T03:25:57.124Z,101030.58
2019-05-05T03:28:28.656Z,101028.75
2019-05-05T03:30:58.179Z,101029.63
2019-05-05T03:33:27.690Z,101026.30
2019-05-05T03:35:57.305Z,101033.77
2019-05-05T03:38:26.898Z,101035.08
2019-05-05T03:40:58.136Z,101037.77
2019-05-05T03:43:31.579Z,101035.95
2019-05-05T03:46:04.444Z,101041.48
2019-05-05T03:48:34.653Z,101043.18
2019-05-05T03:51:17.478Z,101043.08
2019-05-05T03:53:35.617Z,101046.68
2019-05-05T03:56:05.209Z,101049.92
2019-05-05T03:58:34.777Z,101050.79
2019-05-05T04:01:32.233Z,101056.57
2019-05-05T04:04:20.817Z,101057.79
2019-05-05T04:06:51.422Z,101046.11
2019-05-05T04:09:21.090Z,101061.03
2019-05-05T04:11:53.787Z,101056.44
2019-05-05T04:14:25.069Z,101063.33
2019-05-05T04:17:08.234Z,101068.04
2019-05-05T04:19:39.610Z,101063.52
2019-05-05T04:22:09.125Z,101068.63
2019-05-05T04:24:38.652Z,101072.98
2019-05-05T04:27:08.205Z,101073.05
2019-05-05T04:29:37.716Z,101079.00
2019-05-05T04:32:07.229Z,101082.05
2019-05-05T04:34:36.728Z,101088.31
2019-05-05T04:37:06.229Z,101087.00
2019-05-05T04:39:36.686Z,101086.24
2019-05-05T04:42:06.199Z,101090.27
2019-05-05T04:44:35.680Z,101091.51
2019-05-05T04:47:11.864Z,101094.91
2019-05-05T04:49:47.331Z,101097.59
2019-05-05T04:52:17.600Z,101099.42
2019-05-05T04:54:51.764Z,101103.68
2019-05-05T04:57:21.280Z,101111.22
2019-05-05T04:59:54.011Z,101115.98
2019-05-05T05:02:35.763Z,101119.46
2019-05-05T05:05:11.051Z,101120.05
2019-05-05T05:07:40.537Z,101124.58
2019-05-05T05:10:10.198Z,101124.77
2019-05-05T05:12:39.734Z,101131.69
2019-05-05T05:15:09.325Z,101134.19
2019-05-05T05:17:47.744Z,101137.92
2019-05-05T05:20:17.393Z,101142.37
2019-05-05T05:22:46.901Z,101137.70
2019-05-05T05:25:16.562Z,101137.92
2019-05-05T05:27:46.742Z,101139.98
2019-05-05T05:30:16.240Z,101139.44
2019-05-05T05:32:45.754Z,101141.25
2019-05-05T05:35:15.261Z,101146.28
2019-05-05T05:37:44.955Z,101146.99
2019-05-05T05:40:37.553Z,101149.83
2019-05-05T05:43:09.217Z,101161.48
2019-05-05T05:45:47.547Z,101156.55
2019-05-05T05:48:23.689Z,101159.73
2019-05-05T05:50:55.538Z,101165.81
2019-05-05T05:53:25.035Z,101167.27
2019-05-05T05:55:54.519Z,101171.23
2019-05-05T05:58:24.612Z,101176.58
2019-05-05T06:00:55.049Z,101181.66
2019-05-05T06:03:24.686Z,101180.63
2019-05-05T06:05:54.190Z,101178.66
2019-05-05T06:08:24.260Z,101178.56
2019-05-05T06:10:54.702Z,101180.25
2019-05-05T06:13:24.380Z,101186.05
2019-05-05T06:15:53.875Z,101190.31
2019-05-05T06:18:24.329Z,101199.25
2019-05-05T06:20:54.013Z,101208.44
2019-05-05T06:23:24.169Z,101211.66
2019-05-05T06:25:55.123Z,101205.12
2019-05-05T06:28:25.960Z,101204.94
2019-05-05T06:30:55.494Z,101208.10
2019-05-05T06:33:25.014Z,101209.45
2019-05-05T06:35:54.525Z,101206.34
2019-05-05T06:38:25.043Z,101206.80
2019-05-05T06:41:16.707Z,101205.82
2019-05-05T06:43:55.508Z,101196.45
2019-05-05T06:46:28.330Z,101197.15
2019-05-05T06:48:57.843Z,101195.89
2019-05-05T06:51:27.346Z,101205.31
2019-05-05T06:53:56.882Z,101208.69
2019-05-05T06:56:26.381Z,101206.13
2019-05-05T06:58:55.927Z,101206.03
2019-05-05T07:01:25.490Z,101214.06
2019-05-05T07:03:55.991Z,101212.91
2019-05-05T07:06:25.526Z,101217.89
2019-05-05T07:08:55.144Z,101218.00
2019-05-05T07:11:24.667Z,101214.77
2019-05-05T07:13:54.166Z,101216.51
2019-05-05T07:16:24.359Z,101221.17
2019-05-05T07:18:56.029Z,101218.48
2019-05-05T07:21:27.941Z,101222.52
2019-05-05T07:23:57.452Z,101220.85
2019-05-05T07:26:27.022Z,101219.14
2019-05-05T07:28:56.546Z,101229.22
2019-05-05T07:31:26.026Z,101225.44
2019-05-05T07:33:55.556Z,101231.10
2019-05-05T07:36:41.577Z,101231.84
2019-05-05T07:39:11.684Z,101233.98
2019-05-05T07:41:41.251Z,101235.52
2019-05-05T07:44:25.024Z,101237.91
2019-05-05T07:46:43.959Z,101232.14
2019-05-05T07:49:14.011Z,101234.23
2019-05-05T07:51:44.274Z,101232.52
2019-05-05T07:54:14.600Z,101239.97
2019-05-05T07:56:45.229Z,101235.39
2019-05-05T07:59:14.837Z,101235.20
2019-05-05T08:01:46.777Z,101228.34
2019-05-05T08:04:15.612Z,101240.88
2019-05-05T08:06:45.187Z,101233.16
2019-05-05T08:09:14.795Z,101230.14
2019-05-05T08:11:44.306Z,101237.48
2019-05-05T08:14:14.583Z,101236.50
2019-05-05T08:16:53.632Z,101179.53
2019-05-05T08:19:44.980Z,101228.37
2019-05-05T08:22:14.574Z,101229.64
2019-05-05T08:25:01.274Z,101231.57
2019-05-05T08:27:40.699Z,101229.52
2019-05-05T08:30:17.800Z,101234.95
2019-05-05T08:32:47.811Z,101231.39
2019-05-05T08:35:17.453Z,101231.53
2019-05-05T08:37:47.124Z,101230.17
2019-05-05T08:40:16.858Z,101235.18
2019-05-05T08:42:46.381Z,101235.05
2019-05-05T08:45:16.031Z,101228.61
2019-05-05T08:47:46.608Z,101226.28
2019-05-05T08:50:16.943Z,101226.06
2019-05-05T08:52:46.442Z,101181.28
2019-05-05T08:55:15.987Z,101229.55
2019-05-05T08:57:45.475Z,101228.84
2019-05-05T09:00:15.094Z,101221.89
2019-05-05T09:02:44.592Z,101229.44
2019-05-05T09:05:14.557Z,101226.66
2019-05-05T09:07:44.258Z,101235.55
2019-05-05T09:10:14.329Z,101236.38
2019-05-05T09:12:44.919Z,101232.37
2019-05-05T09:15:15.246Z,101235.97
2019-05-05T09:17:44.755Z,101233.97
2019-05-05T09:20:14.502Z,101241.52
2019-05-05T09:22:45.086Z,101238.27
2019-05-05T09:25:23.972Z,101236.17
2019-05-05T09:27:56.217Z,101246.66
2019-05-05T09:30:36.140Z,101240.50
2019-05-05T09:33:05.761Z,101238.86
2019-05-05T09:35:35.625Z,101238.86
2019-05-05T09:38:05.261Z,101239.69
2019-05-05T09:40:39.892Z,101244.92
2019-05-05T09:43:10.058Z,101252.26
2019-05-05T09:45:40.784Z,101256.97
2019-05-05T09:48:10.423Z,101253.81
2019-05-05T09:50:40.432Z,101253.75
2019-05-05T09:53:09.970Z,101251.63
2019-05-05T09:55:39.484Z,101254.39
2019-05-05T09:58:08.984Z,101252.56
2019-05-05T10:00:41.122Z,101249.85
2019-05-05T10:03:10.656Z,101253.11
2019-05-05T10:05:40.241Z,101249.66
2019-05-05T10:08:09.752Z,101239.06
2019-05-05T10:10:39.261Z,101238.70
2019-05-05T10:13:08.761Z,101241.08
2019-05-05T10:15:38.285Z,101239.31
2019-05-05T10:18:07.785Z,101236.81
2019-05-05T10:20:37.308Z,101238.83
2019-05-05T10:23:06.819Z,101162.87
2019-05-05T10:25:44.702Z,101247.99
2019-05-05T10:28:14.792Z,101244.11
2019-05-05T10:30:44.356Z,101220.05
2019-05-05T10:33:14.360Z,101253.57
2019-05-05T10:35:43.935Z,101247.44
2019-05-05T10:38:14.348Z,101257.88
2019-05-05T10:40:44.747Z,101251.46
2019-05-05T10:43:14.936Z,101255.09
2019-05-05T10:45:44.544Z,101249.54
2019-05-05T10:48:14.529Z,101256.72
2019-05-05T10:50:45.139Z,101247.70
2019-05-05T10:53:14.705Z,101247.81
2019-05-05T10:55:45.002Z,101249.84
2019-05-05T10:58:14.731Z,101245.50
2019-05-05T11:00:55.809Z,101241.70
2019-05-05T11:03:25.385Z,101244.89
2019-05-05T11:05:54.890Z,101245.13
2019-05-05T11:08:24.651Z,101248.50
2019-05-05T11:10:54.201Z,101243.98
2019-05-05T11:13:26.603Z,101243.63
2019-05-05T11:15:56.377Z,101205.72
2019-05-05T11:18:26.017Z,101222.97
2019-05-05T11:20:55.678Z,101202.61
2019-05-05T11:23:26.205Z,101249.26
2019-05-05T11:25:55.735Z,101258.09
2019-05-05T11:28:25.298Z,101262.61
2019-05-05T11:30:54.861Z,101253.44
2019-05-05T11:33:49.371Z,101258.28
2019-05-05T11:36:28.557Z,101259.59
2019-05-05T11:38:58.155Z,101260.72
2019-05-05T11:41:27.723Z,101262.67
2019-05-05T11:43:57.338Z,101262.09
2019-05-05T11:46:26.860Z,101258.13
2019-05-05T11:48:56.388Z,101262.55
2019-05-05T11:51:25.905Z,101264.66
2019-05-05T11:53:55.427Z,101263.08
2019-05-05T11:56:25.901Z,101267.80
2019-05-05T11:58:55.447Z,101270.42
2019-05-05T12:01:24.954Z,101266.90
2019-05-05T12:03:55.547Z,101280.22
2019-05-05T12:06:26.034Z,101276.56
2019-05-05T12:08:55.547Z,101272.09
2019-05-05T12:11:25.092Z,101280.48
2019-05-05T12:13:54.750Z,101276.34
2019-05-05T12:16:31.966Z,101289.34
2019-05-05T12:19:04.771Z,101287.96
2019-05-05T12:21:34.301Z,101289.85
2019-05-05T12:24:09.045Z,101288.98
2019-05-05T12:26:57.589Z,101289.61
2019-05-05T12:29:29.844Z,101289.14
2019-05-05T12:31:59.363Z,101276.98
2019-05-05T12:34:28.948Z,101286.00
2019-05-05T12:36:58.464Z,101276.95
2019-05-05T12:39:28.071Z,101280.14
2019-05-05T12:41:57.564Z,101278.27
2019-05-05T12:44:34.082Z,101282.23
2019-05-05T12:47:11.334Z,101280.75
2019-05-05T12:49:40.953Z,101277.47
2019-05-05T12:52:10.524Z,101277.77
2019-05-05T12:54:40.100Z,101283.78
2019-05-05T12:57:09.652Z,101281.41
2019-05-05T12:59:39.220Z,101283.56
2019-05-05T13:02:08.998Z,101279.55
2019-05-05T13:04:38.559Z,101273.88
2019-05-05T13:07:08.438Z,101274.35
2019-05-05T13:09:38.128Z,101271.63
2019-05-05T13:12:07.676Z,101265.38
2019-05-05T13:14:37.288Z,101258.18
2019-05-05T13:17:07.934Z,101267.07
2019-05-05T13:19:47.559Z,101268.04
2019-05-05T13:22:36.248Z,101270.03
2019-05-05T13:25:24.372Z,101267.72
2019-05-05T13:27:57.189Z,101267.87
2019-05-05T13:30:25.745Z,101267.87
2019-05-05T13:32:55.275Z,101265.52
2019-05-05T13:35:24.793Z,101262.04
2019-05-05T13:37:54.969Z,101267.17
2019-05-05T13:40:24.579Z,101270.57
2019-05-05T13:42:54.680Z,101264.80
2019-05-05T13:45:43.644Z,101259.66
2019-05-05T13:48:14.037Z,101248.34
2019-05-05T13:50:48.307Z,101269.44
2019-05-05T13:53:17.826Z,101264.73
2019-05-05T13:55:47.494Z,101262.36
2019-05-05T13:58:17.031Z,101262.36
2019-05-05T14:00:50.774Z,101258.38
2019-05-05T14:03:20.321Z,101261.49
2019-05-05T14:05:50.410Z,101260.76
2019-05-05T14:08:20.061Z,101264.48
2019-05-05T14:10:49.559Z,101253.11
2019-05-05T14:13:19.125Z,101256.19
2019-05-05T14:15:49.595Z,101250.39
2019-05-05T14:18:19.137Z,101253.41
2019-05-05T14:20:48.862Z,101255.11
2019-05-05T14:23:19.090Z,101258.95
2019-05-05T14:25:48.605Z,101254.48
2019-05-05T14:28:18.346Z,101263.16
2019-05-05T14:30:57.044Z,101262.02
2019-05-05T14:33:34.200Z,101255.69
2019-05-05T14:36:24.440Z,101265.03
2019-05-05T14:38:56.195Z,101262.69
2019-05-05T14:41:25.754Z,101256.05
2019-05-05T14:43:56.559Z,101260.32
2019-05-05T14:46:26.152Z,101259.92
2019-05-05T14:48:55.671Z,101250.41
2019-05-05T14:51:25.170Z,101254.22
2019-05-05T14:53:54.710Z,101246.55
2019-05-05T14:56:35.717Z,101251.48
2019-05-05T14:58:55.643Z,101252.07
2019-05-05T15:01:25.146Z,101251.60
2019-05-05T15:03:54.671Z,101250.85
2019-05-05T15:06:31.951Z,101246.47
2019-05-05T15:09:19.228Z,101247.86
2019-05-05T15:12:06.628Z,101239.89
2019-05-05T15:14:36.159Z,101237.94
2019-05-05T15:17:05.738Z,101242.16
2019-05-05T15:19:35.244Z,101245.09
2019-05-05T15:22:05.540Z,101248.40
2019-05-05T15:24:35.078Z,101240.56
2019-05-05T15:27:04.637Z,101262.22
2019-05-05T15:29:34.496Z,101267.11
2019-05-05T15:32:04.397Z,101266.63
2019-05-05T15:34:34.393Z,101274.02
2019-05-05T15:37:04.068Z,101277.11
2019-05-05T15:39:33.739Z,101275.62
2019-05-05T15:42:04.596Z,101265.88
2019-05-05T15:44:34.551Z,101266.94
2019-05-05T15:47:04.088Z,101261.84
2019-05-05T15:49:33.642Z,101269.33
2019-05-05T15:52:04.561Z,101268.28
2019-05-05T15:54:34.367Z,101268.88
2019-05-05T15:57:07.844Z,101265.47
2019-05-05T15:59:35.089Z,101255.81
2019-05-05T16:02:04.672Z,101254.20
2019-05-05T16:04:34.234Z,101255.67
2019-05-05T16:07:04.572Z,101260.09
2019-05-05T16:09:34.225Z,101264.78
2019-05-05T16:12:03.899Z,101267.37
2019-05-05T16:14:35.905Z,101272.00
2019-05-05T16:17:24.471Z,101274.03
2019-05-05T16:20:00.509Z,101275.19
2019-05-05T16:22:34.652Z,101273.46
2019-05-05T16:25:11.194Z,101277.05
2019-05-05T16:27:41.384Z,101272.59
2019-05-05T16:30:14.441Z,101269.18
2019-05-05T16:32:44.063Z,101278.97
2019-05-05T16:35:14.468Z,101271.95
2019-05-05T16:37:44.309Z,101267.25
2019-05-05T16:40:17.554Z,101271.09
2019-05-05T16:42:47.086Z,101267.39
2019-05-05T16:45:17.275Z,101274.25
2019-05-05T16:47:46.786Z,101266.88
2019-05-05T16:50:17.364Z,101275.53
2019-05-05T16:53:01.133Z,101271.98
2019-05-05T16:55:46.743Z,101270.58
2019-05-05T16:58:16.346Z,101269.17
2019-05-05T17:00:45.878Z,101270.09
2019-05-05T17:03:15.401Z,101265.91
2019-05-05T17:05:46.858Z,101261.90
2019-05-05T17:08:16.147Z,101263.61
2019-05-05T17:10:45.682Z,101259.05
2019-05-05T17:13:34.537Z,101262.08
2019-05-05T17:16:22.140Z,101248.31
2019-05-05T17:19:04.445Z,101268.61
2019-05-05T17:21:53.624Z,101269.68
2019-05-05T17:24:24.009Z,101273.79
2019-05-05T17:26:54.979Z,101276.91
2019-05-05T17:29:24.546Z,101278.13
2019-05-05T17:31:54.234Z,101288.52
2019-05-05T17:34:24.714Z,101293.00
2019-05-05T17:36:55.307Z,101286.05
2019-05-05T17:39:26.545Z,101291.59
2019-05-05T17:42:14.117Z,101216.80
2019-05-05T17:45:14.645Z,101290.52
2019-05-05T17:47:48.724Z,101277.02
2019-05-05T17:50:37.143Z,101280.51
2019-05-05T17:53:23.597Z,101281.78
2019-05-05T17:55:54.099Z,101284.59
2019-05-05T17:58:24.706Z,101255.79
2019-05-05T18:00:57.983Z,101282.62
2019-05-05T18:03:28.058Z,101279.77
2019-05-05T18:06:14.332Z,101284.72
2019-05-05T18:08:53.956Z,101282.34
2019-05-05T18:11:28.874Z,101290.02
2019-05-05T18:14:03.942Z,101291.56
2019-05-05T18:16:33.926Z,101291.61
2019-05-05T18:19:04.506Z,101290.80
2019-05-05T18:21:34.807Z,101287.59
2019-05-05T18:24:04.515Z,101296.55
2019-05-05T18:26:34.251Z,101300.12
2019-05-05T18:29:04.036Z,101302.65
2019-05-05T18:31:33.778Z,101298.20
2019-05-05T18:34:03.939Z,101303.23
2019-05-05T18:36:33.723Z,101306.94
2019-05-05T18:39:04.460Z,101302.36
2019-05-05T18:41:50.713Z,101307.94
2019-05-05T18:44:24.494Z,101314.99
2019-05-05T18:47:14.530Z,101312.66
2019-05-05T18:49:42.048Z,101307.63
2019-05-05T18:52:13.691Z,101318.66
2019-05-05T18:54:43.623Z,101318.66
2019-05-05T18:57:13.344Z,101319.11
2019-05-05T18:59:44.706Z,101316.50
2019-05-05T19:02:31.953Z,101319.56
2019-05-05T19:05:11.395Z,101326.43
2019-05-05T19:07:55.249Z,101318.97
2019-05-05T19:10:16.198Z,101324.55
2019-05-05T19:12:45.765Z,101330.36
2019-05-05T19:15:15.332Z,101325.28
2019-05-05T19:17:44.847Z,101327.78
2019-05-05T19:20:39.380Z,101324.13
2019-05-05T19:23:08.896Z,101324.84
2019-05-05T19:25:38.424Z,101331.25
2019-05-05T19:28:07.970Z,101334.17
2019-05-05T19:30:37.511Z,101334.48
2019-05-05T19:33:07.043Z,101342.11
2019-05-05T19:35:44.184Z,101338.12
2019-05-05T19:38:07.829Z,101337.07
2019-05-05T19:40:37.394Z,101341.21
2019-05-05T19:43:06.985Z,101342.91
2019-05-05T19:45:36.523Z,101347.14
2019-05-05T19:48:06.205Z,101344.47
2019-05-05T19:50:41.857Z,101348.58
2019-05-05T19:53:26.576Z,101351.44
2019-05-05T19:55:56.272Z,101352.14
2019-05-05T19:58:26.869Z,101355.86
2019-05-05T20:01:00.451Z,101354.89
2019-05-05T20:03:30.189Z,101358.09
2019-05-05T20:05:59.823Z,101352.41
2019-05-05T20:08:40.546Z,101355.62
2019-05-05T20:11:00.633Z,101351.20
2019-05-05T20:13:30.185Z,101361.37
2019-05-05T20:16:21.759Z,101354.45
2019-05-05T20:18:51.287Z,101359.00
2019-05-05T20:21:20.848Z,101354.28
2019-05-05T20:23:50.385Z,101360.14
2019-05-05T20:26:19.935Z,101362.64
2019-05-05T20:28:49.478Z,101358.40
2019-05-05T20:31:19.007Z,101357.89
2019-05-05T20:34:10.415Z,101361.94
2019-05-05T20:36:58.975Z,101365.23
2019-05-05T20:39:28.568Z,101367.91
2019-05-05T20:41:58.091Z,101369.37
2019-05-05T20:44:27.616Z,101369.48
2019-05-05T20:46:57.128Z,101373.73
2019-05-05T20:49:26.655Z,101372.26
2019-05-05T20:51:56.178Z,101379.70
2019-05-05T20:54:25.745Z,101372.05
2019-05-05T20:56:55.255Z,101370.36
2019-05-05T20:59:30.520Z,101374.12
2019-05-05T21:01:55.979Z,101375.15
2019-05-05T21:04:25.583Z,101375.52
2019-05-05T21:06:55.075Z,101373.27
2019-05-05T21:09:24.950Z,101377.51
2019-05-05T21:11:54.947Z,101377.02
2019-05-05T21:14:31.992Z,101379.55
2019-05-05T21:16:55.654Z,101377.67
2019-05-05T21:19:25.541Z,101378.84
2019-05-05T21:21:56.953Z,101376.61
2019-05-05T21:24:26.454Z,101381.32
2019-05-05T21:27:00.932Z,101378.22
2019-05-05T21:29:39.542Z,101381.70
2019-05-05T21:32:01.709Z,101378.48
2019-05-05T21:34:31.253Z,101371.10
2019-05-05T21:37:00.753Z,101377.30
2019-05-05T21:39:30.265Z,101376.28
2019-05-05T21:41:59.784Z,101375.48
2019-05-05T21:44:29.258Z,101381.13
2019-05-05T21:46:59.294Z,101383.80
2019-05-05T21:49:28.840Z,101382.45
2019-05-05T21:52:14.362Z,101379.67
2019-05-05T21:55:13.898Z,101388.89
2019-05-05T21:57:54.023Z,101381.70
2019-05-05T22:00:41.387Z,101387.70
2019-05-05T22:03:14.192Z,101385.53
2019-05-05T22:05:43.694Z,101384.30
2019-05-05T22:08:14.397Z,101381.83
2019-05-05T22:10:43.965Z,101384.66
2019-05-05T22:13:14.252Z,101389.70
2019-05-05T22:15:43.748Z,101384.67
2019-05-05T22:18:14.441Z,101388.03
2019-05-05T22:20:48.816Z,101390.73
2019-05-05T22:23:18.304Z,101390.73
2019-05-05T22:25:47.817Z,101385.93
2019-05-05T22:28:17.365Z,101385.46
2019-05-05T22:30:46.889Z,101390.00
2019-05-05T22:33:16.409Z,101388.97
2019-05-05T22:35:45.941Z,101388.37
2019-05-05T22:38:15.467Z,101383.97
2019-05-05T22:40:44.994Z,101385.14
2019-05-05T22:43:14.847Z,101383.34
2019-05-05T22:45:45.131Z,101388.32
2019-05-05T22:48:14.743Z,101386.48
2019-05-05T22:50:44.264Z,101383.23
2019-05-05T22:53:16.137Z,101385.91
2019-05-05T22:55:46.321Z,101386.34
2019-05-05T22:58:15.831Z,101393.98
2019-05-05T23:00:45.410Z,101397.30
2019-05-05T23:03:24.388Z,101394.04
2019-05-05T23:06:00.767Z,101391.75
2019-05-05T23:08:30.274Z,101390.39
2019-05-05T23:10:59.770Z,101392.64
2019-05-05T23:13:29.261Z,101391.74
2019-05-05T23:16:27.090Z,101399.50
2019-05-05T23:18:57.573Z,101391.87
2019-05-05T23:21:35.791Z,101393.58
2019-05-05T23:24:24.312Z,101389.36
2019-05-05T23:26:54.775Z,101385.03
2019-05-05T23:29:26.340Z,101385.32
2019-05-05T23:31:55.638Z,101382.08
2019-05-05T23:34:25.233Z,101381.61
2019-05-05T23:36:54.736Z,101376.99
2019-05-05T23:39:25.321Z,101374.53
2019-05-05T23:41:54.911Z,101375.63
2019-05-05T23:44:24.395Z,101371.72
2019-05-05T23:46:54.003Z,101369.87
2019-05-05T23:49:24.199Z,101371.70
2019-05-05T23:51:54.814Z,101372.39
2019-05-05T23:54:24.861Z,101370.42
2019-05-05T23:56:54.404Z,101372.83
2019-05-05T23:59:24.243Z,101364.80
